createdAt,value
2022-09-24T00:02:16.795Z,98108.66
2022-09-24T00:05:25.646Z,98105.53
2022-09-24T00:08:31.151Z,98103.66
2022-09-24T00:11:36.905Z,98103.53
2022-09-24T00:14:45.877Z,98092.66
2022-09-24T00:17:56.291Z,98095.63
2022-09-24T00:21:03.837Z,98098.63
2022-09-24T00:24:33.352Z,98093.13
2022-09-24T00:27:36.250Z,98089.41
2022-09-24T00:30:43.332Z,98084.94
2022-09-24T00:33:52.534Z,98087.00
2022-09-24T00:36:58.155Z,98072.97
2022-09-24T00:40:04.325Z,98072.72
2022-09-24T00:43:30.256Z,98071.28
2022-09-24T00:46:45.770Z,98058.75
2022-09-24T00:49:56.987Z,98062.22
2022-09-24T00:53:10.524Z,98057.53
2022-09-24T00:56:25.481Z,98058.22
2022-09-24T00:59:34.271Z,98060.25
2022-09-24T01:02:47.582Z,98056.59
2022-09-24T01:05:56.181Z,98053.25
2022-09-24T01:09:04.035Z,98050.38
2022-09-24T01:12:29.317Z,98049.19
2022-09-24T01:15:49.063Z,98043.00
2022-09-24T01:19:13.122Z,98043.50
2022-09-24T01:22:46.295Z,98033.03
2022-09-24T01:26:19.308Z,98034.56
2022-09-24T01:29:53.544Z,98027.97
2022-09-24T01:33:06.285Z,98023.22
2022-09-24T01:36:14.428Z,98019.53
2022-09-24T01:39:26.344Z,98017.78
2022-09-24T01:42:37.150Z,98009.78
2022-09-24T01:45:46.108Z,98013.50
2022-09-24T01:48:51.860Z,98020.34
2022-09-24T01:52:10.227Z,98011.88
2022-09-24T01:55:24.746Z,98015.06
2022-09-24T01:58:39.220Z,98014.81
2022-09-24T02:02:01.256Z,98010.44
2022-09-24T02:05:21.366Z,98012.63
2022-09-24T02:08:36.160Z,98013.75
2022-09-24T02:11:42.037Z,98011.38
2022-09-24T02:14:55.342Z,98008.59
2022-09-24T02:18:12.223Z,98011.94
2022-09-24T02:21:23.232Z,98016.53
2022-09-24T02:24:40.485Z,98010.25
2022-09-24T02:27:46.258Z,98013.81
2022-09-24T02:31:02.065Z,98002.31
2022-09-24T02:34:25.746Z,98008.63
2022-09-24T02:37:32.239Z,98014.56
2022-09-24T02:40:37.848Z,98013.03
2022-09-24T02:43:46.310Z,98011.94
2022-09-24T02:46:52.349Z,98010.97
2022-09-24T02:50:00.546Z,98007.22
2022-09-24T02:53:06.370Z,98010.28
2022-09-24T02:56:12.062Z,98012.28
2022-09-24T02:59:19.521Z,98010.88
2022-09-24T03:02:25.162Z,98004.22
2022-09-24T03:05:33.419Z,98003.09
2022-09-24T03:08:38.857Z,97999.03
2022-09-24T03:11:44.395Z,97988.34
2022-09-24T03:14:49.887Z,97994.59
2022-09-24T03:17:55.368Z,97995.44
2022-09-24T03:21:07.378Z,97991.19
2022-09-24T03:24:12.997Z,97995.88
2022-09-24T03:27:21.760Z,97982.69
2022-09-24T03:30:39.743Z,97985.66
2022-09-24T03:33:49.225Z,97986.63
2022-09-24T03:36:57.335Z,97990.88
2022-09-24T03:40:02.809Z,97988.84
2022-09-24T03:43:08.343Z,97994.41
2022-09-24T03:46:16.273Z,97996.00
2022-09-24T03:49:23.662Z,97985.03
2022-09-24T03:52:32.301Z,97988.88
2022-09-24T03:55:38.855Z,97987.25
2022-09-24T03:58:48.394Z,97990.28
2022-09-24T04:01:53.956Z,97999.19
2022-09-24T04:05:00.317Z,97999.31
2022-09-24T04:08:08.726Z,98004.47
2022-09-24T04:11:14.253Z,97991.59
2022-09-24T04:14:20.047Z,97992.00
2022-09-24T04:17:31.473Z,97983.91
2022-09-24T04:20:38.239Z,97985.66
2022-09-24T04:23:46.739Z,97976.56
2022-09-24T04:26:52.283Z,97978.59
2022-09-24T04:29:59.774Z,97971.72
2022-09-24T04:33:10.121Z,97967.97
2022-09-24T04:36:15.809Z,97962.38
2022-09-24T04:39:27.210Z,97976.13
2022-09-24T04:42:34.074Z,97973.97
2022-09-24T04:45:40.581Z,97964.19
2022-09-24T04:48:49.170Z,97971.78
2022-09-24T04:51:54.881Z,97959.72
2022-09-24T04:55:05.409Z,97957.09
2022-09-24T04:58:11.572Z,97965.00
2022-09-24T05:01:20.453Z,97962.06
2022-09-24T05:04:26.011Z,97966.03
2022-09-24T05:07:31.583Z,97967.09
2022-09-24T05:10:39.722Z,97963.16
2022-09-24T05:13:45.485Z,97969.25
2022-09-24T05:16:50.987Z,97959.84
2022-09-24T05:19:58.022Z,97954.94
2022-09-24T05:23:10.439Z,97962.38
2022-09-24T05:26:48.663Z,97958.41
2022-09-24T05:29:54.272Z,97958.22
2022-09-24T05:33:00.159Z,97950.88
2022-09-24T05:36:09.422Z,97952.88
2022-09-24T05:39:15.906Z,97954.22
2022-09-24T05:42:26.831Z,97959.81
2022-09-24T05:45:32.944Z,97965.41
2022-09-24T05:48:46.787Z,97968.69
2022-09-24T05:51:52.718Z,97968.22
2022-09-24T05:54:58.207Z,97962.63
2022-09-24T05:58:13.592Z,97964.06
2022-09-24T06:01:19.832Z,97974.25
2022-09-24T06:04:25.345Z,97968.34
2022-09-24T06:07:31.264Z,97970.25
2022-09-24T06:10:36.980Z,97968.91
2022-09-24T06:13:45.241Z,97964.53
2022-09-24T06:16:56.765Z,97963.47
2022-09-24T06:20:02.383Z,97964.22
2022-09-24T06:23:08.855Z,97972.31
2022-09-24T06:26:17.067Z,97977.91
2022-09-24T06:29:25.194Z,97971.78
2022-09-24T06:32:30.786Z,97978.56
2022-09-24T06:35:38.753Z,97986.34
2022-09-24T06:38:46.144Z,97980.28
2022-09-24T06:41:51.800Z,97985.22
2022-09-24T06:44:59.917Z,97977.50
2022-09-24T06:48:08.880Z,97982.66
2022-09-24T06:51:14.418Z,97983.44
2022-09-24T06:54:20.563Z,97976.63
2022-09-24T06:57:28.954Z,97976.41
2022-09-24T07:00:45.478Z,97979.78
2022-09-24T07:03:59.086Z,97973.84
2022-09-24T07:07:20.174Z,97973.22
2022-09-24T07:10:27.654Z,97979.56
2022-09-24T07:13:33.252Z,97977.97
2022-09-24T07:16:41.690Z,97977.28
2022-09-24T07:19:50.485Z,97985.88
2022-09-24T07:22:56.077Z,97977.25
2022-09-24T07:26:01.954Z,97980.84
2022-09-24T07:29:07.757Z,97981.59
2022-09-24T07:32:16.594Z,97986.53
2022-09-24T07:35:30.433Z,97993.13
2022-09-24T07:38:43.527Z,98003.63
2022-09-24T07:42:06.137Z,98001.16
2022-09-24T07:45:21.898Z,97993.13
2022-09-24T07:48:32.624Z,98007.66
2022-09-24T07:51:50.453Z,98010.38
2022-09-24T07:54:55.931Z,98010.22
2022-09-24T07:58:01.535Z,98002.31
2022-09-24T08:01:07.179Z,98003.78
2022-09-24T08:04:15.471Z,98009.03
2022-09-24T08:07:21.127Z,98006.31
2022-09-24T08:10:28.839Z,98013.75
2022-09-24T08:13:34.705Z,98010.50
2022-09-24T08:16:40.842Z,98005.88
2022-09-24T08:19:49.329Z,98010.22
2022-09-24T08:22:54.933Z,98013.28
2022-09-24T08:26:00.553Z,98010.91
2022-09-24T08:29:06.185Z,98001.16
2022-09-24T08:32:11.924Z,98006.03
2022-09-24T08:35:23.254Z,98001.38
2022-09-24T08:38:28.873Z,98002.00
2022-09-24T08:41:59.291Z,98001.25
2022-09-24T08:45:21.555Z,97994.75
2022-09-24T08:48:36.501Z,97994.84
2022-09-24T08:52:00.622Z,97999.75
2022-09-24T08:55:17.416Z,98004.34
2022-09-24T08:58:44.472Z,97996.88
2022-09-24T09:02:06.960Z,98000.50
2022-09-24T09:05:28.172Z,97999.78
2022-09-24T09:09:06.732Z,97988.00
2022-09-24T09:12:20.899Z,97978.56
2022-09-24T09:15:33.044Z,97968.47
2022-09-24T09:18:44.991Z,97965.31
2022-09-24T09:22:00.167Z,97957.03
2022-09-24T09:25:24.942Z,97952.09
2022-09-24T09:28:32.744Z,97960.28
2022-09-24T09:31:59.230Z,97951.84
2022-09-24T09:35:20.211Z,97955.34
2022-09-24T09:38:42.125Z,97953.06
2022-09-24T09:42:04.614Z,97961.59
2022-09-24T09:45:33.162Z,97951.88
2022-09-24T09:48:49.213Z,97954.72
2022-09-24T09:52:01.266Z,97950.97
2022-09-24T09:55:07.645Z,97955.78
2022-09-24T09:58:27.470Z,97952.13
2022-09-24T10:01:39.784Z,97944.97
2022-09-24T10:04:51.059Z,97948.66
2022-09-24T10:07:59.055Z,97947.53
2022-09-24T10:11:07.847Z,97953.13
2022-09-24T10:14:20.890Z,97959.72
2022-09-24T10:17:34.791Z,97960.34
2022-09-24T10:20:40.734Z,97958.66
2022-09-24T10:23:50.211Z,97955.81
2022-09-24T10:26:57.715Z,97953.72
2022-09-24T10:30:31.085Z,97945.38
2022-09-24T10:33:42.543Z,97953.56
2022-09-24T10:36:55.673Z,97942.72
2022-09-24T10:40:03.355Z,97936.97
2022-09-24T10:43:10.518Z,97933.72
2022-09-24T10:46:48.580Z,97929.00
2022-09-24T10:50:23.607Z,97930.28
2022-09-24T10:53:54.696Z,97922.78
2022-09-24T10:57:09.895Z,97928.34
2022-09-24T11:00:24.411Z,97919.81
2022-09-24T11:04:03.757Z,97920.78
2022-09-24T11:07:41.372Z,97909.84
2022-09-24T11:11:18.045Z,97916.50
2022-09-24T11:14:49.200Z,97903.41
2022-09-24T11:18:21.945Z,97898.44
2022-09-24T11:22:05.965Z,97902.69
2022-09-24T11:25:35.648Z,97908.44
2022-09-24T11:29:31.103Z,97906.13
2022-09-24T11:33:04.305Z,97896.59
2022-09-24T11:36:40.200Z,97891.53
2022-09-24T11:40:07.723Z,97891.81
2022-09-24T11:43:48.522Z,97895.53
2022-09-24T11:47:21.615Z,97899.91
2022-09-24T11:50:48.154Z,97900.72
2022-09-24T11:54:09.358Z,97903.72
2022-09-24T11:57:24.870Z,97905.03
2022-09-24T12:00:43.565Z,97891.28
2022-09-24T12:04:01.821Z,97902.00
2022-09-24T12:07:16.942Z,97898.16
2022-09-24T12:10:43.397Z,97897.09
2022-09-24T12:14:02.822Z,97887.34
2022-09-24T12:17:19.937Z,97884.22
2022-09-24T12:20:32.361Z,97888.03
2022-09-24T12:23:49.273Z,97879.66
2022-09-24T12:27:11.182Z,97880.81
2022-09-24T12:30:58.965Z,97863.53
2022-09-24T12:34:25.239Z,97870.84
2022-09-24T12:37:40.994Z,97872.63
2022-09-24T12:41:28.483Z,97866.59
2022-09-24T12:44:52.870Z,97859.19
2022-09-24T12:48:04.181Z,97866.53
2022-09-24T12:51:22.353Z,97865.88
2022-09-24T12:54:38.423Z,97855.97
2022-09-24T12:57:54.073Z,97850.72
2022-09-24T13:01:17.209Z,97854.47
2022-09-24T13:04:44.624Z,97848.22
2022-09-24T13:08:30.613Z,97846.25
2022-09-24T13:11:45.441Z,97836.03
2022-09-24T13:15:06.886Z,97831.63
2022-09-24T13:18:33.489Z,97837.31
2022-09-24T13:21:39.310Z,97827.00
2022-09-24T13:24:52.748Z,97827.38
2022-09-24T13:28:10.612Z,97817.09
2022-09-24T13:31:46.380Z,97819.50
2022-09-24T13:34:56.262Z,97818.50
2022-09-24T13:38:18.898Z,97817.22
2022-09-24T13:41:45.489Z,97819.03
2022-09-24T13:44:58.869Z,97815.66
2022-09-24T13:48:17.444Z,97806.59
2022-09-24T13:51:44.454Z,97807.97
2022-09-24T13:55:00.898Z,97807.72
2022-09-24T13:58:09.079Z,97805.81
2022-09-24T14:01:19.713Z,97800.28
2022-09-24T14:04:27.159Z,97803.78
2022-09-24T14:07:35.380Z,97794.75
2022-09-24T14:10:41.561Z,97797.66
2022-09-24T14:13:48.040Z,97793.88
2022-09-24T14:16:55.324Z,97789.19
2022-09-24T14:20:01.092Z,97788.38
2022-09-24T14:23:13.186Z,97795.22
2022-09-24T14:26:33.555Z,97792.59
2022-09-24T14:29:49.314Z,97796.78
2022-09-24T14:33:02.063Z,97789.63
2022-09-24T14:36:08.549Z,97787.00
2022-09-24T14:39:17.601Z,97792.88
2022-09-24T14:42:34.713Z,97793.63
2022-09-24T14:45:42.301Z,97790.22
2022-09-24T14:48:48.003Z,97789.03
2022-09-24T14:52:00.054Z,97797.06
2022-09-24T14:55:19.020Z,97790.50
2022-09-24T14:58:40.922Z,97780.59
2022-09-24T15:01:51.114Z,97788.88
2022-09-24T15:05:06.211Z,97784.56
2022-09-24T15:08:30.722Z,97786.63
2022-09-24T15:11:43.546Z,97788.50
2022-09-24T15:15:01.309Z,97785.22
2022-09-24T15:18:07.357Z,97781.41
2022-09-24T15:21:13.656Z,97786.72
2022-09-24T15:24:20.482Z,97777.91
2022-09-24T15:27:32.341Z,97782.47
2022-09-24T15:30:40.125Z,97793.09
2022-09-24T15:33:45.770Z,97795.19
2022-09-24T15:36:55.480Z,97788.31
2022-09-24T15:40:10.216Z,97791.53
2022-09-24T15:43:25.717Z,97791.56
2022-09-24T15:46:31.358Z,97783.19
2022-09-24T15:49:36.931Z,97789.03
2022-09-24T15:52:51.687Z,97786.69
2022-09-24T15:56:02.038Z,97788.75
2022-09-24T15:59:16.422Z,97788.34
2022-09-24T16:02:30.032Z,97790.47
2022-09-24T16:05:36.283Z,97784.16
2022-09-24T16:08:42.218Z,97788.53
2022-09-24T16:11:47.760Z,97791.44
2022-09-24T16:14:59.287Z,97792.69
2022-09-24T16:18:05.150Z,97809.19
2022-09-24T16:21:11.586Z,97806.72
2022-09-24T16:24:17.047Z,97792.91
2022-09-24T16:27:22.655Z,97795.00
2022-09-24T16:30:40.963Z,97802.00
2022-09-24T16:33:46.506Z,97802.53
2022-09-24T16:36:52.047Z,97799.47
2022-09-24T16:39:58.035Z,97801.34
2022-09-24T16:43:03.681Z,97799.69
2022-09-24T16:46:19.546Z,97805.13
2022-09-24T16:49:27.011Z,97805.53
2022-09-24T16:52:33.632Z,97817.03
2022-09-24T16:55:42.118Z,97811.09
2022-09-24T16:58:49.844Z,97814.78
2022-09-24T17:01:58.168Z,97815.00
2022-09-24T17:05:03.912Z,97813.53
2022-09-24T17:08:09.538Z,97810.88
2022-09-24T17:11:12.541Z,97808.41
2022-09-24T17:14:20.186Z,97809.00
2022-09-24T17:17:28.446Z,97804.28
2022-09-24T17:20:33.927Z,97810.22
2022-09-24T17:23:39.782Z,97808.56
2022-09-24T17:26:45.860Z,97810.44
2022-09-24T17:29:51.384Z,97806.13
2022-09-24T17:32:59.487Z,97811.25
2022-09-24T17:36:09.725Z,97811.84
2022-09-24T17:39:16.820Z,97809.19
2022-09-24T17:42:22.316Z,97803.41
2022-09-24T17:45:27.829Z,97809.97
2022-09-24T17:48:40.358Z,97802.09
2022-09-24T17:51:49.625Z,97804.81
2022-09-24T17:54:55.335Z,97803.19
2022-09-24T17:58:00.884Z,97807.66
2022-09-24T18:01:10.417Z,97806.44
2022-09-24T18:04:22.583Z,97802.16
2022-09-24T18:07:30.108Z,97802.78
2022-09-24T18:10:42.736Z,97803.38
2022-09-24T18:14:01.041Z,97810.72
2022-09-24T18:17:06.753Z,97810.66
2022-09-24T18:20:15.070Z,97816.81
2022-09-24T18:23:21.706Z,97808.94
2022-09-24T18:26:31.408Z,97806.94
2022-09-24T18:29:37.548Z,97806.97
2022-09-24T18:32:43.420Z,97807.72
2022-09-24T18:35:51.462Z,97815.03
2022-09-24T18:38:57.083Z,97822.38
2022-09-24T18:42:02.593Z,97818.03
2022-09-24T18:45:12.431Z,97823.91
2022-09-24T18:48:18.292Z,97821.06
2022-09-24T18:51:30.129Z,97820.41
2022-09-24T18:54:35.937Z,97824.75
2022-09-24T18:57:41.465Z,97829.56
2022-09-24T19:00:54.911Z,97826.84
2022-09-24T19:04:03.074Z,97830.41
2022-09-24T19:07:12.606Z,97828.56
2022-09-24T19:10:19.222Z,97835.72
2022-09-24T19:13:26.665Z,97831.78
2022-09-24T19:16:38.505Z,97831.25
2022-09-24T19:19:51.559Z,97832.19
2022-09-24T19:23:02.588Z,97827.28
2022-09-24T19:26:10.441Z,97830.47
2022-09-24T19:29:18.116Z,97832.47
2022-09-24T19:32:23.711Z,97832.31
2022-09-24T19:35:32.205Z,97827.78
2022-09-24T19:38:41.493Z,97833.97
2022-09-24T19:41:47.859Z,97820.88
2022-09-24T19:44:54.732Z,97817.97
2022-09-24T19:48:00.578Z,97832.72
2022-09-24T19:51:10.229Z,97824.75
2022-09-24T19:54:18.344Z,97830.38
2022-09-24T19:57:23.838Z,97828.19
2022-09-24T20:00:29.366Z,97831.13
2022-09-24T20:03:36.026Z,97828.78
2022-09-24T20:06:42.298Z,97827.66
2022-09-24T20:09:50.412Z,97828.03
2022-09-24T20:12:58.503Z,97817.38
2022-09-24T20:16:07.796Z,97822.84
2022-09-24T20:19:16.414Z,97815.16
2022-09-24T20:22:22.006Z,97817.31
2022-09-24T20:25:43.005Z,97818.91
2022-09-24T20:28:48.482Z,97822.84
2022-09-24T20:31:57.211Z,97818.78
2022-09-24T20:35:02.707Z,97827.34
2022-09-24T20:38:20.806Z,97818.72
2022-09-24T20:41:29.394Z,97826.97
2022-09-24T20:44:35.860Z,97824.28
2022-09-24T20:47:41.469Z,97826.38
2022-09-24T20:50:47.137Z,97822.34
2022-09-24T20:53:54.000Z,97821.63
2022-09-24T20:57:02.404Z,97824.50
2022-09-24T21:00:10.377Z,97818.38
2022-09-24T21:03:42.055Z,97830.09
2022-09-24T21:06:41.279Z,97821.00
2022-09-24T21:09:48.977Z,97812.63
2022-09-24T21:12:59.779Z,97821.06
2022-09-24T21:16:10.287Z,97819.56
2022-09-24T21:19:18.266Z,97815.34
2022-09-24T21:22:24.536Z,97820.38
2022-09-24T21:25:52.712Z,97821.56
2022-09-24T21:29:03.192Z,97817.69
2022-09-24T21:32:08.759Z,97821.81
2022-09-24T21:35:17.722Z,97818.63
2022-09-24T21:38:28.757Z,97819.00
2022-09-24T21:41:40.062Z,97820.84
2022-09-24T21:44:48.230Z,97821.66
2022-09-24T21:47:55.211Z,97817.25
2022-09-24T21:51:07.583Z,97816.78
2022-09-24T21:54:23.172Z,97809.44
2022-09-24T21:57:28.648Z,97817.94
2022-09-24T22:00:36.742Z,97812.06
2022-09-24T22:03:42.274Z,97813.91
2022-09-24T22:06:48.918Z,97810.66
2022-09-24T22:09:54.456Z,97808.19
2022-09-24T22:13:00.689Z,97807.81
2022-09-24T22:16:11.812Z,97811.69
2022-09-24T22:19:17.831Z,97808.38
2022-09-24T22:22:23.668Z,97804.59
2022-09-24T22:25:29.296Z,97809.41
2022-09-24T22:28:36.010Z,97801.94
2022-09-24T22:31:44.157Z,97789.94
2022-09-24T22:35:02.080Z,97812.84
2022-09-24T22:38:10.470Z,97811.38
2022-09-24T22:41:16.014Z,97807.66
2022-09-24T22:44:22.204Z,97801.78
2022-09-24T22:47:30.293Z,97808.78
2022-09-24T22:50:35.821Z,97792.84
2022-09-24T22:53:44.500Z,97802.03
2022-09-24T22:56:50.279Z,97802.72
2022-09-24T22:59:56.183Z,97804.38
2022-09-24T23:03:04.393Z,97805.97
2022-09-24T23:06:12.084Z,97810.25
2022-09-24T23:09:17.746Z,97805.78
2022-09-24T23:12:23.404Z,97803.00
2022-09-24T23:15:29.172Z,97806.94
2022-09-24T23:18:37.725Z,97796.84
2022-09-24T23:21:47.022Z,97806.28
2022-09-24T23:24:53.769Z,97802.13
2022-09-24T23:28:01.571Z,97803.44
2022-09-24T23:31:07.948Z,97805.03
2022-09-24T23:34:17.102Z,97803.31
2022-09-24T23:37:22.821Z,97803.47
2022-09-24T23:40:30.092Z,97809.06
2022-09-24T23:43:36.509Z,97804.88
2022-09-24T23:46:43.104Z,97803.72
2022-09-24T23:49:51.235Z,97799.22
2022-09-24T23:52:57.051Z,97800.63
2022-09-24T23:56:05.186Z,97796.38
2022-09-24T23:59:11.319Z,97789.28
